createdAt,value
2022-10-07T00:00:53.918Z,53.18
2022-10-07T00:03:22.686Z,54.04
2022-10-07T00:06:16.950Z,54.21
2022-10-07T00:08:46.924Z,54.52
2022-10-07T00:11:24.045Z,54.51
2022-10-07T00:13:58.885Z,55.01
2022-10-07T00:16:37.253Z,54.86
2022-10-07T00:19:07.581Z,54.68
2022-10-07T00:21:36.370Z,53.92
2022-10-07T00:24:03.834Z,54.01
2022-10-07T00:26:35.655Z,54.15
2022-10-07T00:29:03.476Z,53.89
2022-10-07T00:31:33.510Z,53.71
2022-10-07T00:34:02.904Z,54.06
2022-10-07T00:36:35.220Z,53.41
2022-10-07T00:39:07.664Z,54.47
2022-10-07T00:41:40.894Z,54.63
2022-10-07T00:44:32.321Z,54.49
2022-10-07T00:47:01.424Z,53.62
2022-10-07T00:49:29.599Z,53.61
2022-10-07T00:51:58.417Z,52.77
2022-10-07T00:54:25.644Z,52.99
2022-10-07T00:56:52.706Z,53.40
2022-10-07T00:59:21.391Z,53.63
2022-10-07T01:01:48.347Z,53.24
2022-10-07T01:04:15.755Z,52.87
2022-10-07T01:06:43.201Z,53.15
2022-10-07T01:09:11.687Z,53.14
2022-10-07T01:12:00.335Z,53.73
2022-10-07T01:14:29.536Z,53.49
2022-10-07T01:17:23.761Z,54.10
2022-10-07T01:20:23.998Z,54.01
2022-10-07T01:23:19.113Z,54.75
2022-10-07T01:25:59.051Z,53.94
2022-10-07T01:28:31.741Z,54.53
2022-10-07T01:31:01.853Z,54.54
2022-10-07T01:33:32.768Z,54.39
2022-10-07T01:36:07.631Z,53.67
2022-10-07T01:38:37.490Z,54.13
2022-10-07T01:41:15.274Z,54.76
2022-10-07T01:43:45.057Z,54.48
2022-10-07T01:46:19.595Z,54.28
2022-10-07T01:48:47.722Z,53.95
2022-10-07T01:51:17.455Z,53.07
2022-10-07T01:53:53.434Z,53.91
2022-10-07T01:56:45.750Z,54.81
2022-10-07T01:59:50.691Z,53.31
2022-10-07T02:02:40.447Z,54.16
2022-10-07T02:05:09.364Z,53.81
2022-10-07T02:07:45.691Z,53.74
2022-10-07T02:10:17.952Z,52.99
2022-10-07T02:13:07.095Z,53.30
2022-10-07T02:16:02.869Z,51.77
2022-10-07T02:18:33.290Z,51.50
2022-10-07T02:21:04.166Z,50.18
2022-10-07T02:23:34.495Z,46.53
2022-10-07T02:26:03.899Z,50.44
2022-10-07T02:28:32.915Z,47.63
2022-10-07T02:31:04.501Z,49.77
2022-10-07T02:33:34.658Z,50.23
2022-10-07T02:36:10.840Z,50.52
2022-10-07T02:38:39.874Z,51.02
2022-10-07T02:41:33.537Z,51.32
2022-10-07T02:44:26.080Z,50.59
2022-10-07T02:47:05.211Z,49.76
2022-10-07T02:49:38.588Z,49.17
2022-10-07T02:52:10.137Z,48.67
2022-10-07T02:54:42.767Z,48.59
2022-10-07T02:57:13.685Z,47.23
2022-10-07T02:59:42.581Z,44.78
2022-10-07T03:02:16.948Z,45.12
2022-10-07T03:04:44.518Z,45.71
2022-10-07T03:07:13.271Z,47.12
2022-10-07T03:09:41.955Z,47.75
2022-10-07T03:12:10.781Z,48.67
2022-10-07T03:14:37.946Z,48.46
2022-10-07T03:17:07.152Z,49.76
2022-10-07T03:19:34.422Z,47.76
2022-10-07T03:22:02.478Z,46.20
2022-10-07T03:24:32.318Z,47.77
2022-10-07T03:26:59.237Z,45.09
2022-10-07T03:29:26.697Z,45.71
2022-10-07T03:31:55.554Z,46.08
2022-10-07T03:34:23.318Z,46.96
2022-10-07T03:36:50.619Z,47.82
2022-10-07T03:39:17.730Z,46.51
2022-10-07T03:41:44.651Z,47.82
2022-10-07T03:44:11.639Z,49.07
2022-10-07T03:46:38.998Z,48.88
2022-10-07T03:49:05.926Z,47.53
2022-10-07T03:51:33.266Z,47.22
2022-10-07T03:54:01.479Z,47.60
2022-10-07T03:56:31.841Z,46.26
2022-10-07T03:59:00.237Z,46.69
2022-10-07T04:01:27.292Z,46.19
2022-10-07T04:03:59.894Z,44.33
2022-10-07T04:06:29.584Z,46.55
2022-10-07T04:08:57.470Z,46.47
2022-10-07T04:11:24.516Z,45.00
2022-10-07T04:13:55.729Z,46.44
2022-10-07T04:16:25.456Z,46.56
2022-10-07T04:18:55.434Z,47.09
2022-10-07T04:21:23.863Z,47.44
2022-10-07T04:23:50.980Z,46.10
2022-10-07T04:26:18.077Z,44.90
2022-10-07T04:28:49.328Z,44.21
2022-10-07T04:31:21.608Z,45.06
2022-10-07T04:33:54.420Z,46.44
2022-10-07T04:36:27.419Z,46.85
2022-10-07T04:39:15.112Z,44.67
2022-10-07T04:41:51.252Z,47.53
2022-10-07T04:44:22.447Z,48.12
2022-10-07T04:46:56.963Z,48.02
2022-10-07T04:49:26.685Z,48.56
2022-10-07T04:51:54.822Z,46.80
2022-10-07T04:54:25.041Z,47.77
2022-10-07T04:56:54.908Z,48.56
2022-10-07T04:59:27.938Z,48.69
2022-10-07T05:01:57.104Z,49.09
2022-10-07T05:04:24.794Z,48.04
2022-10-07T05:06:53.216Z,49.14
2022-10-07T05:09:20.498Z,48.20
2022-10-07T05:11:49.187Z,49.11
2022-10-07T05:14:21.675Z,49.01
2022-10-07T05:16:51.245Z,49.29
2022-10-07T05:19:20.770Z,49.57
2022-10-07T05:21:48.309Z,50.41
2022-10-07T05:24:15.387Z,49.57
2022-10-07T05:26:42.923Z,50.27
2022-10-07T05:29:10.060Z,49.86
2022-10-07T05:31:44.376Z,50.80
2022-10-07T05:34:13.615Z,51.38
2022-10-07T05:36:41.351Z,49.38
2022-10-07T05:39:09.732Z,51.02
2022-10-07T05:41:51.962Z,51.57
2022-10-07T05:44:24.338Z,50.20
2022-10-07T05:46:53.371Z,51.30
2022-10-07T05:49:21.524Z,50.94
2022-10-07T05:51:49.317Z,49.59
2022-10-07T05:54:17.113Z,51.02
2022-10-07T05:56:45.326Z,49.64
2022-10-07T05:59:14.059Z,50.95
2022-10-07T06:01:43.311Z,50.76
2022-10-07T06:04:15.734Z,51.11
2022-10-07T06:06:47.152Z,51.34
2022-10-07T06:09:50.023Z,51.15
2022-10-07T06:12:36.655Z,51.54
2022-10-07T06:15:09.815Z,51.77
2022-10-07T06:17:45.850Z,51.44
2022-10-07T06:20:17.119Z,51.82
2022-10-07T06:22:45.389Z,52.01
2022-10-07T06:25:14.519Z,52.10
2022-10-07T06:27:42.384Z,52.36
2022-10-07T06:30:10.088Z,52.19
2022-10-07T06:32:37.039Z,52.42
2022-10-07T06:35:05.060Z,52.36
2022-10-07T06:37:33.274Z,52.13
2022-10-07T06:40:01.273Z,51.78
2022-10-07T06:42:31.906Z,51.69
2022-10-07T06:45:17.432Z,51.98
2022-10-07T06:47:45.374Z,51.43
2022-10-07T06:50:13.679Z,52.62
2022-10-07T06:52:43.476Z,52.56
2022-10-07T06:55:11.727Z,52.16
2022-10-07T06:57:46.747Z,52.96
2022-10-07T07:00:17.506Z,52.97
2022-10-07T07:02:45.359Z,53.57
2022-10-07T07:05:14.727Z,54.02
2022-10-07T07:07:42.989Z,54.00
2022-10-07T07:10:10.314Z,53.96
2022-10-07T07:12:41.084Z,53.81
2022-10-07T07:15:09.699Z,53.44
2022-10-07T07:17:37.449Z,53.91
2022-10-07T07:20:05.761Z,54.49
2022-10-07T07:22:32.824Z,54.05
2022-10-07T07:24:59.903Z,53.49
2022-10-07T07:27:27.226Z,53.12
2022-10-07T07:29:54.151Z,51.87
2022-10-07T07:32:21.612Z,53.26
2022-10-07T07:34:48.565Z,52.80
2022-10-07T07:37:20.514Z,51.99
2022-10-07T07:39:51.284Z,51.87
2022-10-07T07:42:19.147Z,52.46
2022-10-07T07:44:47.032Z,51.75
2022-10-07T07:47:17.182Z,52.19
2022-10-07T07:49:45.899Z,51.67
2022-10-07T07:52:17.952Z,51.09
2022-10-07T07:54:48.479Z,50.55
2022-10-07T07:57:15.588Z,50.17
2022-10-07T07:59:42.800Z,50.39
2022-10-07T08:02:15.318Z,49.34
2022-10-07T08:04:46.473Z,49.08
2022-10-07T08:07:14.114Z,49.80
2022-10-07T08:09:44.101Z,49.10
2022-10-07T08:12:12.034Z,48.76
2022-10-07T08:14:40.116Z,49.49
2022-10-07T08:17:07.422Z,49.49
2022-10-07T08:19:35.077Z,48.66
2022-10-07T08:22:04.178Z,48.02
2022-10-07T08:24:31.947Z,47.99
2022-10-07T08:27:01.786Z,48.22
2022-10-07T08:29:30.237Z,47.74
2022-10-07T08:31:57.492Z,48.00
2022-10-07T08:34:24.419Z,47.64
2022-10-07T08:36:51.972Z,47.83
2022-10-07T08:39:19.006Z,45.54
2022-10-07T08:42:13.338Z,46.16
2022-10-07T08:44:42.994Z,45.68
2022-10-07T08:47:38.711Z,46.06
2022-10-07T08:50:16.683Z,45.74
2022-10-07T08:52:51.413Z,45.70
2022-10-07T08:55:24.482Z,46.21
2022-10-07T08:58:21.144Z,46.82
2022-10-07T09:00:54.590Z,46.01
2022-10-07T09:03:31.214Z,46.04
2022-10-07T09:05:59.702Z,45.29
2022-10-07T09:08:34.312Z,44.73
2022-10-07T09:11:16.053Z,42.46
2022-10-07T09:13:48.172Z,44.56
2022-10-07T09:16:26.677Z,44.23
2022-10-07T09:18:56.964Z,44.22
2022-10-07T09:21:29.277Z,44.15
2022-10-07T09:24:01.707Z,44.22
2022-10-07T09:26:28.609Z,43.34
2022-10-07T09:28:55.727Z,42.20
2022-10-07T09:31:25.134Z,42.69
2022-10-07T09:33:54.208Z,42.98
2022-10-07T09:36:21.463Z,41.48
2022-10-07T09:38:52.516Z,42.03
2022-10-07T09:41:35.451Z,42.24
2022-10-07T09:44:17.515Z,41.20
2022-10-07T09:46:49.446Z,41.50
2022-10-07T09:49:28.288Z,39.74
2022-10-07T09:52:15.971Z,39.82
2022-10-07T09:54:45.801Z,40.36
2022-10-07T09:57:36.464Z,39.35
2022-10-07T10:00:12.463Z,39.54
2022-10-07T10:03:07.021Z,40.28
2022-10-07T10:05:39.516Z,40.14
2022-10-07T10:08:18.572Z,41.61
2022-10-07T10:10:56.966Z,40.53
2022-10-07T10:13:36.930Z,40.85
2022-10-07T10:16:24.932Z,40.37
2022-10-07T10:19:02.513Z,39.44
2022-10-07T10:21:41.097Z,39.22
2022-10-07T10:24:15.108Z,39.13
2022-10-07T10:27:01.659Z,38.95
2022-10-07T10:29:54.699Z,38.98
2022-10-07T10:32:37.031Z,39.22
2022-10-07T10:35:20.280Z,38.03
2022-10-07T10:38:04.597Z,39.33
2022-10-07T10:40:42.202Z,39.31
2022-10-07T10:43:35.391Z,38.88
2022-10-07T10:46:17.600Z,38.37
2022-10-07T10:49:07.070Z,38.59
2022-10-07T10:52:04.114Z,38.11
2022-10-07T10:54:43.351Z,38.44
2022-10-07T10:58:00.080Z,38.01
2022-10-07T11:00:42.387Z,37.03
2022-10-07T11:03:18.677Z,37.20
2022-10-07T11:05:47.970Z,37.65
2022-10-07T11:08:17.962Z,37.68
2022-10-07T11:10:48.764Z,37.18
2022-10-07T11:13:21.514Z,35.73
2022-10-07T11:15:59.416Z,36.87
2022-10-07T11:18:33.019Z,37.57
2022-10-07T11:21:01.644Z,37.36
2022-10-07T11:23:51.826Z,36.62
2022-10-07T11:26:34.453Z,37.73
2022-10-07T11:29:25.031Z,37.59
2022-10-07T11:32:06.895Z,37.59
2022-10-07T11:34:40.656Z,37.25
2022-10-07T11:37:16.165Z,37.79
2022-10-07T11:39:43.277Z,36.61
2022-10-07T11:42:16.678Z,37.17
2022-10-07T11:44:43.593Z,35.56
2022-10-07T11:47:17.300Z,35.33
2022-10-07T11:50:14.258Z,37.07
2022-10-07T11:52:46.759Z,35.58
2022-10-07T11:55:27.647Z,36.42
2022-10-07T11:58:00.568Z,35.21
2022-10-07T12:00:31.845Z,35.43
2022-10-07T12:03:33.823Z,33.71
2022-10-07T12:06:13.990Z,34.59
2022-10-07T12:08:43.478Z,35.52
2022-10-07T12:11:13.783Z,36.07
2022-10-07T12:13:52.086Z,35.27
2022-10-07T12:16:28.307Z,36.06
2022-10-07T12:19:07.347Z,35.68
2022-10-07T12:22:12.848Z,34.93
2022-10-07T12:24:45.976Z,34.36
2022-10-07T12:27:28.778Z,33.77
2022-10-07T12:30:00.380Z,33.25
2022-10-07T12:32:46.492Z,33.49
2022-10-07T12:35:35.065Z,33.13
2022-10-07T12:38:24.664Z,33.49
2022-10-07T12:41:04.836Z,32.35
2022-10-07T12:43:45.950Z,34.22
2022-10-07T12:46:17.163Z,34.02
2022-10-07T12:49:07.592Z,33.86
2022-10-07T12:51:39.621Z,33.78
2022-10-07T12:54:20.612Z,32.61
2022-10-07T12:56:49.497Z,32.25
2022-10-07T12:59:54.755Z,33.18
2022-10-07T13:02:36.721Z,31.65
2022-10-07T13:05:31.785Z,31.91
2022-10-07T13:08:33.067Z,32.77
2022-10-07T13:11:09.029Z,33.28
2022-10-07T13:13:52.264Z,33.42
2022-10-07T13:16:42.121Z,32.99
2022-10-07T13:19:32.677Z,33.64
2022-10-07T13:22:15.165Z,32.81
2022-10-07T13:24:53.540Z,33.25
2022-10-07T13:27:27.869Z,32.80
2022-10-07T13:29:57.054Z,32.37
2022-10-07T13:32:33.051Z,32.21
2022-10-07T13:35:19.797Z,32.88
2022-10-07T13:37:47.278Z,32.10
2022-10-07T13:40:40.689Z,31.42
2022-10-07T13:43:09.104Z,31.70
2022-10-07T13:45:43.774Z,31.96
2022-10-07T13:48:21.356Z,32.04
2022-10-07T13:50:51.983Z,31.72
2022-10-07T13:53:30.718Z,32.21
2022-10-07T13:56:16.419Z,31.92
2022-10-07T13:58:43.837Z,31.74
2022-10-07T14:05:05.218Z,32.20
2022-10-07T14:07:32.326Z,33.51
2022-10-07T14:09:59.296Z,32.69
2022-10-07T14:12:43.235Z,33.08
2022-10-07T14:15:23.269Z,33.31
2022-10-07T14:18:13.371Z,33.33
2022-10-07T14:20:51.946Z,33.31
2022-10-07T14:23:31.425Z,33.65
2022-10-07T14:25:59.783Z,34.12
2022-10-07T14:28:28.636Z,33.99
2022-10-07T14:31:38.851Z,34.76
2022-10-07T14:34:35.647Z,35.15
2022-10-07T14:37:27.182Z,34.98
2022-10-07T14:39:56.746Z,34.87
2022-10-07T14:42:29.686Z,35.80
2022-10-07T14:44:57.680Z,35.03
2022-10-07T14:47:28.236Z,36.72
2022-10-07T14:49:57.159Z,36.22
2022-10-07T14:52:32.297Z,37.33
2022-10-07T14:55:03.300Z,37.07
2022-10-07T14:57:30.407Z,37.03
2022-10-07T14:59:57.385Z,37.62
2022-10-07T15:02:24.359Z,37.10
2022-10-07T15:04:51.481Z,37.57
2022-10-07T15:07:18.525Z,38.90
2022-10-07T15:09:46.129Z,38.43
2022-10-07T15:12:15.154Z,38.37
2022-10-07T15:14:42.605Z,38.24
2022-10-07T15:17:12.239Z,38.02
2022-10-07T15:19:39.338Z,37.56
2022-10-07T15:22:06.853Z,38.00
2022-10-07T15:24:34.375Z,37.89
2022-10-07T15:27:01.607Z,38.28
2022-10-07T15:29:28.659Z,38.47
2022-10-07T15:31:55.747Z,39.45
2022-10-07T15:34:22.930Z,39.32
2022-10-07T15:36:50.277Z,39.03
2022-10-07T15:39:17.216Z,39.13
2022-10-07T15:41:44.433Z,39.24
2022-10-07T15:44:16.301Z,38.96
2022-10-07T15:46:46.074Z,39.24
2022-10-07T15:49:13.853Z,39.56
2022-10-07T15:51:41.002Z,39.98
2022-10-07T15:54:09.537Z,41.20
2022-10-07T15:56:36.625Z,40.96
2022-10-07T15:59:04.077Z,43.02
2022-10-07T16:01:34.057Z,43.26
2022-10-07T16:04:02.809Z,43.48
2022-10-07T16:06:33.034Z,43.42
2022-10-07T16:09:00.922Z,41.60
2022-10-07T16:11:29.542Z,42.95
2022-10-07T16:13:56.524Z,43.28
2022-10-07T16:16:26.082Z,43.21
2022-10-07T16:18:54.913Z,43.30
2022-10-07T16:21:29.351Z,43.26
2022-10-07T16:24:05.747Z,43.38
2022-10-07T16:26:35.420Z,42.92
2022-10-07T16:29:23.012Z,43.02
2022-10-07T16:31:54.620Z,42.68
2022-10-07T16:34:24.707Z,42.52
2022-10-07T16:36:51.737Z,43.03
2022-10-07T16:39:20.892Z,42.90
2022-10-07T16:41:49.343Z,43.28
2022-10-07T16:44:16.400Z,43.57
2022-10-07T16:46:44.207Z,43.40
2022-10-07T16:49:14.685Z,42.88
2022-10-07T16:51:41.965Z,43.45
2022-10-07T16:54:15.893Z,44.04
2022-10-07T16:56:49.187Z,44.34
2022-10-07T16:59:23.238Z,44.07
2022-10-07T17:01:56.611Z,43.49
2022-10-07T17:04:25.067Z,43.90
2022-10-07T17:06:52.916Z,44.28
2022-10-07T17:09:21.679Z,44.53
2022-10-07T17:11:48.795Z,45.68
2022-10-07T17:14:21.249Z,44.98
2022-10-07T17:16:55.415Z,44.93
2022-10-07T17:19:24.835Z,45.00
2022-10-07T17:21:53.300Z,45.46
2022-10-07T17:24:23.147Z,45.69
2022-10-07T17:26:50.667Z,45.81
2022-10-07T17:29:20.041Z,45.58
2022-10-07T17:31:50.646Z,46.03
2022-10-07T17:34:20.107Z,45.88
2022-10-07T17:36:48.207Z,45.75
2022-10-07T17:39:15.928Z,45.72
2022-10-07T17:41:42.930Z,46.13
2022-10-07T17:44:15.674Z,46.25
2022-10-07T17:46:42.882Z,46.20
2022-10-07T17:49:13.598Z,46.96
2022-10-07T17:51:43.343Z,47.42
2022-10-07T17:54:12.632Z,47.80
2022-10-07T17:56:39.812Z,47.24
2022-10-07T17:59:06.945Z,47.34
2022-10-07T18:01:35.260Z,47.35
2022-10-07T18:04:07.919Z,46.99
2022-10-07T18:06:36.864Z,47.08
2022-10-07T18:09:09.273Z,47.68
2022-10-07T18:11:55.049Z,48.00
2022-10-07T18:14:40.770Z,47.95
2022-10-07T18:17:09.248Z,47.92
2022-10-07T18:19:36.548Z,48.53
2022-10-07T18:22:03.786Z,48.28
2022-10-07T18:24:31.124Z,47.97
2022-10-07T18:27:00.246Z,48.48
2022-10-07T18:29:28.514Z,48.56
2022-10-07T18:31:56.260Z,48.28
2022-10-07T18:34:23.915Z,48.39
2022-10-07T18:36:55.997Z,48.76
2022-10-07T18:39:24.684Z,48.32
2022-10-07T18:41:51.801Z,48.40
2022-10-07T18:44:18.893Z,48.79
2022-10-07T18:46:46.070Z,48.45
2022-10-07T18:49:14.303Z,48.62
2022-10-07T18:51:41.512Z,48.67
2022-10-07T18:54:09.992Z,48.56
2022-10-07T18:56:40.756Z,48.42
2022-10-07T18:59:08.320Z,48.32
2022-10-07T19:01:35.584Z,48.48
2022-10-07T19:04:03.855Z,48.83
2022-10-07T19:06:33.498Z,48.71
2022-10-07T19:09:02.815Z,48.66
2022-10-07T19:11:34.154Z,48.42
2022-10-07T19:14:01.674Z,48.79
2022-10-07T19:16:36.464Z,48.69
2022-10-07T19:19:07.701Z,48.91
2022-10-07T19:21:35.752Z,49.25
2022-10-07T19:24:04.572Z,49.20
2022-10-07T19:26:37.199Z,49.28
2022-10-07T19:29:05.981Z,49.11
2022-10-07T19:31:35.740Z,49.12
2022-10-07T19:34:12.992Z,49.23
2022-10-07T19:36:42.655Z,49.15
2022-10-07T19:39:10.882Z,49.20
2022-10-07T19:41:37.906Z,48.93
2022-10-07T19:44:05.750Z,48.95
2022-10-07T19:46:33.989Z,49.18
2022-10-07T19:49:02.560Z,49.29
2022-10-07T19:51:31.393Z,49.09
2022-10-07T19:54:00.305Z,49.02
2022-10-07T19:56:29.378Z,49.05
2022-10-07T19:58:58.865Z,48.78
2022-10-07T20:01:29.448Z,48.65
2022-10-07T20:03:59.948Z,49.05
2022-10-07T20:06:27.925Z,49.04
2022-10-07T20:08:55.970Z,49.16
2022-10-07T20:11:23.401Z,49.50
2022-10-07T20:13:51.908Z,49.54
2022-10-07T20:16:21.248Z,49.59
2022-10-07T20:18:50.487Z,50.60
2022-10-07T20:21:23.997Z,50.34
2022-10-07T20:23:53.928Z,50.19
2022-10-07T20:26:29.854Z,50.28
2022-10-07T20:28:59.711Z,50.54
2022-10-07T20:31:29.686Z,50.69
2022-10-07T20:33:58.140Z,50.88
2022-10-07T20:36:31.425Z,51.46
2022-10-07T20:39:25.491Z,51.14
2022-10-07T20:42:12.084Z,51.11
2022-10-07T20:44:39.751Z,51.55
2022-10-07T20:47:08.842Z,51.69
2022-10-07T20:49:37.546Z,51.68
2022-10-07T20:52:07.189Z,51.72
2022-10-07T20:54:34.250Z,52.45
2022-10-07T20:57:01.159Z,52.56
2022-10-07T20:59:30.388Z,52.48
2022-10-07T21:04:52.499Z,52.37
2022-10-07T21:07:20.221Z,52.75
2022-10-07T21:09:48.110Z,52.75
2022-10-07T21:12:18.202Z,52.65
2022-10-07T21:14:47.960Z,52.81
2022-10-07T21:17:15.381Z,53.17
2022-10-07T21:19:42.494Z,53.46
2022-10-07T21:22:09.633Z,53.73
2022-10-07T21:24:36.672Z,53.53
2022-10-07T21:27:06.115Z,53.63
2022-10-07T21:29:37.518Z,53.82
2022-10-07T21:32:07.680Z,54.54
2022-10-07T21:34:34.718Z,54.63
2022-10-07T21:37:01.774Z,54.44
2022-10-07T21:39:29.130Z,54.23
2022-10-07T21:41:58.084Z,54.45
2022-10-07T21:44:27.000Z,54.48
2022-10-07T21:46:54.010Z,55.00
2022-10-07T21:49:20.954Z,55.04
2022-10-07T21:51:48.160Z,54.94
2022-10-07T21:54:15.612Z,55.04
2022-10-07T21:56:46.201Z,55.10
2022-10-07T21:59:14.438Z,54.94
2022-10-07T22:01:42.707Z,56.03
2022-10-07T22:04:16.060Z,56.84
2022-10-07T22:07:02.096Z,56.83
2022-10-07T22:09:29.502Z,57.44
2022-10-07T22:11:57.238Z,57.20
2022-10-07T22:14:24.233Z,58.87
2022-10-07T22:16:51.231Z,58.99
2022-10-07T22:19:18.189Z,59.18
2022-10-07T22:21:46.067Z,59.76
2022-10-07T22:24:14.160Z,59.73
2022-10-07T22:26:46.986Z,61.23
2022-10-07T22:29:16.309Z,61.49
2022-10-07T22:31:43.898Z,61.31
2022-10-07T22:34:31.753Z,61.14
2022-10-07T22:36:58.793Z,60.30
2022-10-07T22:39:26.890Z,60.47
2022-10-07T22:41:54.097Z,60.29
2022-10-07T22:44:21.071Z,61.52
2022-10-07T22:46:48.227Z,61.27
2022-10-07T22:49:15.351Z,61.61
2022-10-07T22:51:43.205Z,61.77
2022-10-07T22:54:14.497Z,61.76
2022-10-07T22:56:41.423Z,61.50
2022-10-07T22:59:08.832Z,61.83
2022-10-07T23:01:36.752Z,62.07
2022-10-07T23:04:04.932Z,61.97
2022-10-07T23:06:34.760Z,62.47
2022-10-07T23:09:02.805Z,62.63
2022-10-07T23:11:30.558Z,62.81
2022-10-07T23:13:57.644Z,62.24
2022-10-07T23:16:28.107Z,61.82
2022-10-07T23:18:55.638Z,62.02
2022-10-07T23:21:28.215Z,62.60
2022-10-07T23:24:05.971Z,62.05
2022-10-07T23:26:34.398Z,62.17
2022-10-07T23:29:01.819Z,62.12
2022-10-07T23:31:31.794Z,62.01
2022-10-07T23:34:00.636Z,62.28
2022-10-07T23:36:28.336Z,61.89
2022-10-07T23:38:55.632Z,61.72
2022-10-07T23:41:25.248Z,61.64
2022-10-07T23:43:54.223Z,61.73
2022-10-07T23:46:23.522Z,62.16
2022-10-07T23:48:51.124Z,61.57
2022-10-07T23:51:20.743Z,61.49
2022-10-07T23:53:48.750Z,61.26
2022-10-07T23:56:15.967Z,60.79
2022-10-07T23:58:42.972Z,61.50
